SondeTracker

Meteorological Radiosondes Database

Operations

Sounding was ended - last measurement: 2022-12-06 11:45:22z

MAP
About Radiosonde

Number: D22041074 (22041074)

Launch Site: Salt Lake City [UT] (US)

Type: DFM17

AUX: NO

Frequency: 405.010 MHz

Max Speed: 150 km/h at 11454 m

Average Speed: 86.00 km/h

Max Altitude: 11744 m

Average Ascent Speed: 4.16 m/s

Average Descent Speed: 0.00 m/s

Status: UNKNOWN

Status Changes
Launch Site Type AUX Frequency Status Finder Landing Point Description Changes made by
APRS Statistics

Received Frames: 38

First Frame [UTC]: 2022-12-06 11:05:06z

Last Frame [UTC]: 2022-12-06 11:45:22z

Receivers: N7ZDX-1

Flight Time: 00:40:16 h

Distance From First Measurement: 53.13 km

Nearest City: Park City [UT] (US) [31.66 km]

Nearest Hunter: mongolw8 [51.27 km]

Ground Altitude: 1944 m

Distance from QTH: 0.00 km

APRS Data
Receiver Number Date/Time [UTC] φ λ Course [°] Speed [km/h] Altitude [m] Description
N7ZDX-1D220410742022-12-06 11:45:2240.9109-111.357314811744Clb=5.7m/s t=-55.6C h=-1.0% p=-1.0hPa 405.010 MHz Type=DFM17 ser=22041074 Radiosonde
N7ZDX-1D220410742022-12-06 11:43:2340.9042-111.3797515011454Clb=4.9m/s t=-54.9C h=-1.0% p=-1.0hPa 405.010 MHz Type=DFM17 ser=22041074 Radiosonde
N7ZDX-1D220410742022-12-06 11:41:1940.8995-111.47413711245Clb=5.6m/s t=-54.1C h=-1.0% p=-1.0hPa 405.010 MHz Type=DFM17 ser=22041074 Radiosonde
N7ZDX-1D220410742022-12-06 11:39:4240.8931-111.4266513910965Clb=4.5m/s t=-53.4C h=-1.0% p=-1.0hPa 405.010 MHz Type=DFM17 ser=22041074 Radiosonde
N7ZDX-1D220410742022-12-06 11:38:4140.8865-111.4526812810707Clb=3.3m/s t=-53.5C h=-1.0% p=-1.0hPa 405.010 MHz Type=DFM17 ser=22041074 Radiosonde
N7ZDX-1D220410742022-12-06 11:37:4240.8797-111.4796713510452Clb=3.3m/s t=-52.4C h=-1.0% p=-1.0hPa 405.010 MHz Type=DFM17 ser=22041074 Radiosonde
N7ZDX-1D220410742022-12-06 11:36:3940.8715-111.5067012810191Clb=4.4m/s t=-51.8C h=-1.0% p=-1.0hPa 405.010 MHz Type=DFM17 ser=22041074 Radiosonde
N7ZDX-1D220410742022-12-06 11:36:2640.8651-111.53731319922Clb=4.5m/s t=-50.6C h=-1.0% p=-1.0hPa 405.010 MHz Type=DFM17 ser=22041074 Radiosonde
N7ZDX-1D220410742022-12-06 11:36:1940.8591-111.556741379645Clb=5.1m/s t=-49.7C h=-1.0% p=-1.0hPa 405.010 MHz Type=DFM17 ser=22041074 Radiosonde
N7ZDX-1D220410742022-12-06 11:34:5740.8531-111.58671339397Clb=3.6m/s t=-48.7C h=-1.0% p=-1.0hPa 405.010 MHz Type=DFM17 ser=22041074 Radiosonde
N7ZDX-1D220410742022-12-06 11:33:0440.8465-111.605781339144Clb=4.5m/s t=-48.7C h=-1.0% p=-1.0hPa 405.010 MHz Type=DFM17 ser=22041074 Radiosonde
N7ZDX-1D220410742022-12-06 11:31:3340.8406-111.632761358881Clb=4.9m/s t=-47.4C h=-1.0% p=-1.0hPa 405.010 MHz Type=DFM17 ser=22041074 Radiosonde
N7ZDX-1D220410742022-12-06 11:31:1240.8342-111.658741308623Clb=4.6m/s t=-46.0C h=-1.0% p=-1.0hPa 405.010 MHz Type=DFM17 ser=22041074 Radiosonde
N7ZDX-1D220410742022-12-06 11:30:2940.8282-111.685751358366Clb=5.1m/s t=-44.7C h=-1.0% p=-1.0hPa 405.010 MHz Type=DFM17 ser=22041074 Radiosonde
N7ZDX-1D220410742022-12-06 11:28:4840.8227-111.71701228113Clb=5.0m/s t=-43.5C h=-1.0% p=-1.0hPa 405.010 MHz Type=DFM17 ser=22041074 Radiosonde
N7ZDX-1D220410742022-12-06 11:27:3040.8168-111.734661157880Clb=3.9m/s t=-42.8C h=-1.0% p=-1.0hPa 405.010 MHz Type=DFM17 ser=22041074 Radiosonde
N7ZDX-1D220410742022-12-06 11:26:2840.8114-111.756671067641Clb=3.8m/s t=-42.0C h=-1.0% p=-1.0hPa 405.010 MHz Type=DFM17 ser=22041074 Radiosonde
N7ZDX-1D220410742022-12-06 11:26:0840.806-111.77769987387Clb=4.0m/s t=-41.0C h=-1.0% p=-1.0hPa 405.010 MHz Type=DFM17 ser=22041074 Radiosonde
N7ZDX-1D220410742022-12-06 11:24:3840.8009-111.79564917124Clb=4.0m/s t=-40.5C h=-1.0% p=-1.0hPa 405.010 MHz Type=DFM17 ser=22041074 Radiosonde
N7ZDX-1D220410742022-12-06 11:23:2540.797-111.81164856860Clb=5.6m/s t=-38.5C h=-1.0% p=-1.0hPa 405.010 MHz Type=DFM17 ser=22041074 Radiosonde
N7ZDX-1D220410742022-12-06 11:22:2440.7925-111.82658746591Clb=4.2m/s t=-36.7C h=-1.0% p=-1.0hPa 405.010 MHz Type=DFM17 ser=22041074 Radiosonde
N7ZDX-1D220410742022-12-06 11:21:4640.7878-111.8479786299Clb=5.8m/s t=-34.2C h=-1.0% p=-1.0hPa 405.010 MHz Type=DFM17 ser=22041074 Radiosonde
N7ZDX-1D220410742022-12-06 11:20:2840.7841-111.85474746035Clb=4.5m/s t=-32.2C h=-1.0% p=-1.0hPa 405.010 MHz Type=DFM17 ser=22041074 Radiosonde
N7ZDX-1D220410742022-12-06 11:19:2140.7803-111.86783595785Clb=4.8m/s t=-30.3C h=-1.0% p=-1.0hPa 405.010 MHz Type=DFM17 ser=22041074 Radiosonde
N7ZDX-1D220410742022-12-06 11:18:2040.7773-111.87972595513Clb=4.5m/s t=-27.9C h=-1.0% p=-1.0hPa 405.010 MHz Type=DFM17 ser=22041074 Radiosonde
N7ZDX-1D220410742022-12-06 11:17:3340.7745-111.8967445268Clb=3.5m/s t=-26.0C h=-1.0% p=-1.0hPa 405.010 MHz Type=DFM17 ser=22041074 Radiosonde
N7ZDX-1D220410742022-12-06 11:16:2140.7723-111.958564985Clb=3.4m/s t=-23.9C h=-1.0% p=-1.0hPa 405.010 MHz Type=DFM17 ser=22041074 Radiosonde
N7ZDX-1D220410742022-12-06 11:15:1740.7702-111.9197464713Clb=4.6m/s t=-22.5C h=-1.0% p=-1.0hPa 405.010 MHz Type=DFM17 ser=22041074 Radiosonde
N7ZDX-1D220410742022-12-06 11:14:1540.77-111.91871244422Clb=4.3m/s t=-20.0C h=-1.0% p=-1.0hPa 405.010 MHz Type=DFM17 ser=22041074 Radiosonde
N7ZDX-1D220410742022-12-06 11:13:1440.7708-111.925115304124Clb=4.2m/s t=-17.8C h=-1.0% p=-1.0hPa 405.010 MHz Type=DFM17 ser=22041074 Radiosonde
N7ZDX-1D220410742022-12-06 11:12:1440.7714-111.931108313811Clb=4.9m/s t=-15.4C h=-1.0% p=-1.0hPa 405.010 MHz Type=DFM17 ser=22041074 Radiosonde
N7ZDX-1D220410742022-12-06 11:11:1240.7724-111.938114463507Clb=6.2m/s t=-15.1C h=-1.0% p=-1.0hPa 405.010 MHz Type=DFM17 ser=22041074 Radiosonde
N7ZDX-1D220410742022-12-06 11:10:1140.7747-111.944137393207Clb=4.9m/s t=-12.7C h=-1.0% p=-1.0hPa 405.010 MHz Type=DFM17 ser=22041074 Radiosonde
N7ZDX-1D220410742022-12-06 11:09:1040.7757-111.94897332894Clb=4.4m/s t=-10.1C h=-1.0% p=-1.0hPa 405.010 MHz Type=DFM17 ser=22041074 Radiosonde
N7ZDX-1D220410742022-12-06 11:08:0940.7757-111.9523272596Clb=4.0m/s t=-7.5C h=-1.0% p=-1.0hPa 405.010 MHz Type=DFM17 ser=22041074 Radiosonde
N7ZDX-1D220410742022-12-06 11:07:0840.776-111.95578242291Clb=4.7m/s t=-6.0C h=-1.0% p=-1.0hPa 405.010 MHz Type=DFM17 ser=22041074 Radiosonde
N7ZDX-1D220410742022-12-06 11:06:0740.775-111.956264111977Clb=4.2m/s t=-4.4C h=-1.0% p=-1.0hPa 405.010 MHz Type=DFM17 ser=22041074 Radiosonde
N7ZDX-1D220410742022-12-06 11:05:0640.7738-111.955354171691Clb=6.0m/s t=-3.8C h=-1.0% p=-1.0hPa 405.010 MHz Type=DFM17 ser=22041074 Radiosonde